Time;durP1;ratioP1;P1;durP2;ratioP2;P2;SDS_P1;SDS_P2;PMS_P1;PMS_P2;Temp;Humidity;BMP_temperature;BMP_pressure;BME280_temperature;BME280_humidity;BME280_pressure;Samples;Min_cycle;Max_cycle;Signal;HPM_P1;HPM_P2
2022/01/23 00:02:25;;;;;;;2.80;1.90;;;;;;;-3.73;67.71;101397.19;4501885;31;20833;-71
2022/01/23 00:04:53;;;;;;;2.22;1.70;;;;;;;-3.73;67.73;101394.59;4501703;31;20518;-71
2022/01/23 00:07:22;;;;;;;5.90;1.83;;;;;;;-3.73;67.77;101412.63;4501600;31;20148;-71
2022/01/23 00:09:49;;;;;;;5.43;2.28;;;;;;;-3.82;68.01;101422.34;4501672;31;20092;-71
2022/01/23 00:12:20;;;;;;;3.00;2.00;;;;;;;-3.87;68.26;101425.53;4486896;31;20611;-71
2022/01/23 00:17:34;;;;;;;4.10;2.20;;;;;;;-3.87;68.28;101422.97;4501508;31;20484;-71
2022/01/23 00:20:09;;;;;;;7.90;2.60;;;;;;;-3.83;67.95;101426.63;4501611;31;20122;-71
2022/01/23 00:22:43;;;;;;;6.25;2.40;;;;;;;-3.88;68.09;101433.16;4501497;31;20419;-71
2022/01/23 00:30:45;;;;;;;7.18;2.70;;;;;;;-3.88;67.71;101416.03;4501245;31;20083;-71
2022/01/23 00:33:14;;;;;;;7.85;3.12;;;;;;;-4.03;68.34;101427.91;4501295;31;20160;-71
2022/01/23 00:35:45;;;;;;;7.45;2.97;;;;;;;-3.98;68.14;101426.53;4501497;31;20178;-71
2022/01/23 00:38:14;;;;;;;7.78;3.67;;;;;;;-4.04;68.32;101423.56;4501352;31;20088;-71
2022/01/23 00:40:44;;;;;;;12.30;4.78;;;;;;;-4.01;68.19;101420.31;4501293;31;20096;-71
2022/01/23 00:43:30;;;;;;;6.87;3.60;;;;;;;-4.06;68.44;101427.75;4501167;31;20101;-71
2022/01/23 00:46:20;;;;;;;11.75;4.28;;;;;;;-3.94;67.86;101427.63;4501385;31;20174;-71
2022/01/23 00:51:30;;;;;;;16.67;6.97;;;;;;;-4.13;68.69;101441.03;4501300;31;20144;-71
2022/01/23 00:53:58;;;;;;;19.73;6.90;;;;;;;-4.08;68.45;101439.63;4501209;31;20080;-71
2022/01/23 00:56:26;;;;;;;26.20;8.90;;;;;;;-4.04;68.19;101444.16;4501271;31;20540;-71
2022/01/23 00:58:53;;;;;;;36.22;11.07;;;;;;;-4.12;68.37;101445.38;4501327;31;20079;-71
2022/01/23 01:01:21;;;;;;;24.92;9.55;;;;;;;-4.11;68.43;101445.47;4501046;31;20083;-71
2022/01/23 01:03:48;;;;;;;30.20;10.05;;;;;;;-4.05;68.05;101442.41;4501039;31;20092;-71
2022/01/23 01:06:17;;;;;;;26.55;9.30;;;;;;;-4.09;68.21;101437.84;4501236;31;20121;-71
2022/01/23 01:08:47;;;;;;;18.25;6.90;;;;;;;-4.22;68.73;101432.69;4500910;31;20080;-71
2022/01/23 01:16:57;;;;;;;14.52;6.32;;;;;;;-4.36;69.28;101424.97;4501140;31;20127;-71
2022/01/23 01:36:07;;;;;;;5.05;2.60;;;;;;;-4.35;69.09;101424.22;4501021;31;20100;-71
2022/01/23 01:38:34;;;;;;;4.20;1.83;;;;;;;-4.30;68.95;101433.91;4500882;31;20245;-71
2022/01/23 01:41:02;;;;;;;6.12;2.15;;;;;;;-4.25;68.73;101429.94;4501286;31;20151;-71
2022/01/23 01:43:34;;;;;;;3.42;2.08;;;;;;;-4.19;68.37;101432.91;4502850;31;20092;-71
2022/01/23 01:46:03;;;;;;;6.53;2.10;;;;;;;-4.09;67.93;101422.41;4503008;31;20103;-71
2022/01/23 01:48:32;;;;;;;4.80;1.90;;;;;;;-4.02;67.73;101424.56;4502916;31;20112;-71
2022/01/23 01:51:00;;;;;;;3.33;2.08;;;;;;;-4.00;67.66;101422.09;4503077;31;20167;-71
2022/01/23 01:53:28;;;;;;;5.35;2.10;;;;;;;-3.87;66.98;101415.22;4502581;31;20095;-71
2022/01/23 01:55:57;;;;;;;3.83;1.55;;;;;;;-3.88;67.21;101433.16;4502707;31;20119;-71
2022/01/23 02:22:58;;;;;;;5.90;2.70;;;;;;;-4.24;68.77;101401.75;4502719;31;20147;-71
2022/01/23 02:55:35;;;;;;;5.15;2.25;;;;;;;-3.68;67.63;101419.81;4502223;31;20083;-71
2022/01/23 02:58:05;;;;;;;6.03;2.15;;;;;;;-3.73;67.74;101412.63;4502490;31;20456;-71
2022/01/23 03:00:46;;;;;;;6.93;2.40;;;;;;;-3.71;67.99;101411.94;4502206;31;20091;-71
2022/01/23 03:03:21;;;;;;;2.95;1.80;;;;;;;-3.72;68.20;101401.53;4502287;31;20179;-71
2022/01/23 03:14:18;;;;;;;8.00;2.42;;;;;;;-3.71;68.12;101401.62;4502057;31;20226;-71
2022/01/23 03:30:26;;;;;;;6.80;1.95;;;;;;;-3.64;68.42;101401.22;4501899;31;20164;-71
2022/01/23 03:32:54;;;;;;;11.48;3.72;;;;;;;-3.57;68.23;101411.88;4501952;31;20088;-71
2022/01/23 03:35:22;;;;;;;6.50;2.25;;;;;;;-3.64;68.64;101408.94;4501992;31;20166;-71
2022/01/23 03:37:50;;;;;;;3.58;1.87;;;;;;;-3.57;68.66;101414.44;4501756;31;20106;-71
2022/01/23 03:40:18;;;;;;;5.18;2.55;;;;;;;-3.54;68.72;101424.94;4501821;31;20148;-71
2022/01/23 03:42:48;;;;;;;3.45;1.92;;;;;;;-3.54;68.74;101415.53;4501789;31;20126;-71
2022/01/23 03:50:48;;;;;;;4.35;1.83;;;;;;;-3.42;68.78;101411.12;4502108;31;20476;-71
2022/01/23 03:53:16;;;;;;;4.22;2.10;;;;;;;-3.40;68.76;101406.06;4501797;31;20455;-71
2022/01/23 03:55:43;;;;;;;5.07;2.20;;;;;;;-3.33;68.54;101412.47;4501696;31;20159;-71
2022/01/23 03:58:11;;;;;;;1.52;1.42;;;;;;;-3.33;68.65;101404.75;4501628;31;20144;-71
2022/01/23 04:00:39;;;;;;;2.10;1.80;;;;;;;-3.29;68.41;101405.00;4501672;31;20107;-71
2022/01/23 04:03:07;;;;;;;4.28;1.87;;;;;;;-3.24;68.24;101403.63;4501560;31;20088;-71
2022/01/23 04:05:35;;;;;;;3.55;1.98;;;;;;;-3.20;68.08;101408.16;4501327;31;20719;-71
2022/01/23 04:08:04;;;;;;;3.10;1.83;;;;;;;-3.17;68.17;101402.31;4501719;31;20121;-71
2022/01/23 04:10:32;;;;;;;2.97;1.90;;;;;;;-3.15;67.92;101398.09;4501796;31;20814;-71
2022/01/23 04:32:24;;;;;;;7.32;2.17;;;;;;;-2.99;67.48;101420.56;4501570;31;20447;-71
2022/01/23 04:59:50;;;;;;;7.87;1.75;;;;;;;-2.73;65.69;101424.66;4501178;31;20170;-71
2022/01/23 05:05:27;;;;;;;5.00;1.90;;;;;;;-2.75;65.89;101421.09;4420032;32;20132;-71
2022/01/23 05:07:56;;;;;;;2.78;1.35;;;;;;;-2.78;65.84;101420.94;4489427;31;20163;-71
2022/01/23 05:10:24;;;;;;;4.43;1.58;;;;;;;-2.77;65.93;101425.28;4500975;31;20125;-71
2022/01/23 05:12:52;;;;;;;5.47;1.90;;;;;;;-2.79;65.85;101425.19;4501013;31;20095;-71
2022/01/23 05:15:19;;;;;;;3.85;1.83;;;;;;;-2.71;65.60;101426.53;4501049;31;20119;-71
2022/01/23 05:17:47;;;;;;;1.55;1.10;;;;;;;-2.69;65.66;101431.75;4502933;31;20099;-71
2022/01/23 05:20:16;;;;;;;3.10;1.77;;;;;;;-2.71;65.34;101431.69;4502910;31;20092;-71
2022/01/23 05:22:47;;;;;;;5.85;2.22;;;;;;;-2.74;65.61;101433.19;4502769;31;20508;-71
2022/01/23 05:27:44;;;;;;;8.38;2.10;;;;;;;-2.68;65.29;101437.03;4502739;31;20488;-71
2022/01/23 05:30:11;;;;;;;4.75;1.83;;;;;;;-2.70;65.46;101442.88;4502562;31;20391;-71
2022/01/23 05:32:41;;;;;;;5.15;1.98;;;;;;;-2.75;65.91;101458.09;4502792;31;20079;-71
2022/01/23 05:35:10;;;;;;;7.90;3.12;;;;;;;-2.73;65.78;101453.03;4502609;31;20425;-71
2022/01/23 05:37:40;;;;;;;3.85;2.35;;;;;;;-2.72;65.18;101454.78;4502935;31;20088;-71
2022/01/23 05:40:12;;;;;;;3.55;2.00;;;;;;;-2.75;65.51;101455.53;4502781;31;20111;-71
2022/01/23 05:42:40;;;;;;;4.25;1.87;;;;;;;-2.72;65.47;101460.87;4502954;31;20118;-71
2022/01/23 05:45:10;;;;;;;2.30;1.60;;;;;;;-2.77;65.50;101458.81;4502897;31;20096;-71
2022/01/23 05:47:41;;;;;;;5.15;2.28;;;;;;;-2.94;66.32;101463.84;4502810;31;20873;-71
2022/01/23 05:50:09;;;;;;;3.75;2.17;;;;;;;-2.96;66.70;101468.03;4502859;31;21111;-71
2022/01/23 05:52:36;;;;;;;6.60;2.25;;;;;;;-2.87;66.18;101470.25;4502848;31;20559;-71
2022/01/23 05:55:05;;;;;;;3.70;2.05;;;;;;;-2.72;65.29;101478.94;4502614;31;20549;-71
2022/01/23 05:57:33;;;;;;;4.85;1.98;;;;;;;-2.68;65.07;101477.41;4502703;31;20116;-71
2022/01/23 06:00:04;;;;;;;6.82;1.67;;;;;;;-2.65;64.97;101480.16;4502637;31;20095;-71
2022/01/23 06:02:37;;;;;;;6.00;1.90;;;;;;;-2.61;64.74;101486.41;4502851;31;20079;-71
2022/01/23 06:05:05;;;;;;;4.90;2.05;;;;;;;-2.64;64.83;101487.09;4502711;31;20092;-71
2022/01/23 06:07:32;;;;;;;4.03;1.83;;;;;;;-2.60;64.71;101483.91;4502752;31;20141;-71
2022/01/23 06:10:00;;;;;;;6.07;1.73;;;;;;;-2.53;64.75;101492.91;4502667;31;20099;-71
2022/01/23 06:12:28;;;;;;;5.95;2.22;;;;;;;-2.62;65.07;101494.94;4502500;31;20080;-71
2022/01/23 06:14:55;;;;;;;4.72;1.95;;;;;;;-2.54;65.17;101504.91;4502370;31;20092;-71
2022/01/23 06:17:23;;;;;;;6.32;2.80;;;;;;;-2.62;65.54;101506.12;4502316;31;20088;-71
2022/01/23 06:19:53;;;;;;;10.18;2.90;;;;;;;-2.46;64.67;101495.91;4502680;31;20607;-71
2022/01/23 06:22:23;;;;;;;6.22;1.77;;;;;;;-2.32;63.89;101498.41;4502387;31;20134;-71
2022/01/23 06:24:51;;;;;;;7.00;1.70;;;;;;;-2.24;63.33;101500.63;4502686;31;20470;-71
2022/01/23 06:27:18;;;;;;;2.08;1.55;;;;;;;-2.16;63.54;101503.63;4502154;31;20092;-71
2022/01/23 06:29:46;;;;;;;4.03;1.62;;;;;;;-2.06;63.42;101507.66;4502271;31;20179;-71
2022/01/23 06:32:15;;;;;;;3.80;1.62;;;;;;;-2.15;63.46;101518.34;4502385;31;20155;-71
2022/01/23 06:34:42;;;;;;;3.33;1.83;;;;;;;-2.20;63.98;101517.19;4502423;31;20122;-71
2022/01/23 06:37:10;;;;;;;6.45;2.15;;;;;;;-2.14;63.93;101516.66;4502195;31;20500;-71
2022/01/23 06:39:38;;;;;;;8.63;2.10;;;;;;;-2.07;63.72;101511.03;4502461;31;20142;-71
2022/01/23 06:42:08;;;;;;;7.95;1.90;;;;;;;-2.02;63.77;101502.72;4502449;31;20084;-71
2022/01/23 06:44:37;;;;;;;3.85;1.77;;;;;;;-1.98;63.69;101507.28;4502238;31;20533;-71
2022/01/23 06:47:06;;;;;;;5.05;2.15;;;;;;;-2.01;63.75;101506.22;4502139;31;20092;-71
2022/01/23 06:49:34;;;;;;;6.05;1.77;;;;;;;-1.96;63.87;101499.62;4502049;31;20451;-71
2022/01/23 06:52:02;;;;;;;1.60;1.30;;;;;;;-2.08;63.92;101512.75;4502147;31;20084;-71
2022/01/23 06:54:30;;;;;;;6.03;2.22;;;;;;;-2.00;64.16;101523.50;4501935;31;20087;-71
2022/01/23 06:56:57;;;;;;;5.35;2.50;;;;;;;-1.98;64.17;101527.03;4502010;31;20526;-71
2022/01/23 06:59:25;;;;;;;16.62;7.20;;;;;;;-2.00;64.19;101529.56;4501900;31;20100;-71
2022/01/23 07:01:55;;;;;;;18.67;10.57;;;;;;;-1.92;63.72;101530.88;4501951;31;20080;-71
2022/01/23 07:04:23;;;;;;;11.12;6.15;;;;;;;-1.91;63.89;101534.34;4502046;31;20091;-71
2022/01/23 07:06:51;;;;;;;17.90;7.78;;;;;;;-1.95;64.23;101527.22;4502224;31;20497;-71
2022/01/23 07:09:19;;;;;;;5.40;3.03;;;;;;;-2.00;64.55;101526.97;4502263;31;20095;-71
2022/01/23 07:11:46;;;;;;;4.28;2.55;;;;;;;-1.87;63.89;101525.97;4502133;31;20152;-73
2022/01/23 07:14:16;;;;;;;3.12;1.90;;;;;;;-1.90;63.91;101530.09;4502020;31;20118;-73
2022/01/23 07:16:43;;;;;;;1.90;1.65;;;;;;;-1.95;64.35;101525.53;4502078;31;20099;-73
2022/01/23 07:19:13;;;;;;;9.90;2.55;;;;;;;-1.99;64.52;101521.00;4502167;31;20108;-73
2022/01/23 07:21:41;;;;;;;3.83;1.98;;;;;;;-1.96;64.21;101523.75;4501852;31;20412;-73
2022/01/23 07:24:09;;;;;;;3.97;1.85;;;;;;;-1.92;64.33;101528.28;4501897;31;20163;-73
2022/01/23 07:26:37;;;;;;;5.78;1.77;;;;;;;-1.85;64.31;101526.94;4502148;31;20463;-73
2022/01/23 07:29:06;;;;;;;7.07;1.83;;;;;;;-1.82;64.03;101521.94;4501558;31;20119;-71
2022/01/23 07:34:07;;;;;;;7.18;1.83;;;;;;;-1.77;63.54;101519.62;4501854;31;20145;-71
2022/01/23 07:36:37;;;;;;;5.05;1.87;;;;;;;-1.78;63.37;101517.84;4501774;31;20100;-71
2022/01/23 07:39:06;;;;;;;6.75;1.90;;;;;;;-1.76;63.37;101526.59;4500906;31;20099;-71
2022/01/23 07:41:33;;;;;;;3.22;1.45;;;;;;;-1.68;63.06;101527.88;4501896;31;20083;-71
2022/01/23 07:44:04;;;;;;;4.15;2.05;;;;;;;-1.67;62.91;101521.91;4501886;31;20148;-71
2022/01/23 07:46:34;;;;;;;10.00;2.60;;;;;;;-1.66;63.19;101525.37;4501920;31;20567;-71
2022/01/23 07:49:02;;;;;;;11.55;3.30;;;;;;;-1.70;63.77;101533.00;4501779;31;20230;-71
2022/01/23 07:51:30;;;;;;;6.95;3.33;;;;;;;-1.69;63.89;101531.28;4501684;31;20545;-72
2022/01/23 07:53:57;;;;;;;16.42;4.82;;;;;;;-1.73;63.69;101531.94;4501775;31;20162;-71
2022/01/23 07:56:26;;;;;;;9.07;3.90;;;;;;;-1.56;63.13;101528.56;4501821;31;20111;-71
2022/01/23 07:58:54;;;;;;;9.40;3.37;;;;;;;-1.52;63.68;101532.19;4501545;31;20095;-71
2022/01/23 08:01:22;;;;;;;5.87;3.25;;;;;;;-1.50;63.49;101534.06;4501552;31;20088;-71
2022/01/23 08:03:51;;;;;;;6.53;2.83;;;;;;;-1.50;63.38;101536.66;4501908;31;20084;-71
2022/01/23 08:06:21;;;;;;;16.45;6.15;;;;;;;-1.35;63.10;101541.78;4487209;31;20100;-71
2022/01/23 08:08:50;;;;;;;6.85;3.40;;;;;;;-1.27;63.08;101548.28;4501319;31;20107;-71
2022/01/23 08:11:19;;;;;;;5.50;2.45;;;;;;;-1.21;63.09;101545.09;4501408;31;20436;-71
2022/01/23 08:13:46;;;;;;;5.07;2.05;;;;;;;-1.00;62.17;101541.09;4501563;31;20118;-71
2022/01/23 08:16:13;;;;;;;5.10;2.15;;;;;;;-1.00;62.02;101543.66;4501376;31;20455;-71
2022/01/23 08:18:41;;;;;;;6.05;2.42;;;;;;;-0.84;61.87;101541.91;4501509;31;20484;-71
2022/01/23 08:21:08;;;;;;;6.95;2.40;;;;;;;-0.78;62.06;101558.66;4501534;31;20091;-71
2022/01/23 08:23:38;;;;;;;3.95;2.12;;;;;;;-0.78;61.75;101560.31;4501507;31;20487;-71
2022/01/23 08:26:06;;;;;;;10.93;2.33;;;;;;;-0.59;61.83;101555.31;4501142;31;20575;-71
2022/01/23 08:28:33;;;;;;;4.82;2.30;;;;;;;-0.46;60.38;101566.28;4501280;31;20173;-71
2022/01/23 08:31:00;;;;;;;5.53;2.92;;;;;;;-0.60;61.04;101571.66;4501295;31;20083;-71
2022/01/23 08:33:28;;;;;;;8.20;2.62;;;;;;;-0.53;61.25;101571.19;4501412;31;20456;-71
2022/01/23 08:35:57;;;;;;;9.57;3.60;;;;;;;-0.20;60.39;101565.06;4501318;31;20096;-71
2022/01/23 08:38:24;;;;;;;15.35;6.40;;;;;;;-0.20;59.67;101571.12;4501269;31;20095;-71
2022/01/23 08:43:38;;;;;;;2.85;1.92;;;;;;;-0.23;59.40;101573.56;4501258;31;20499;-71
2022/01/23 08:46:06;;;;;;;8.82;2.80;;;;;;;-0.18;59.33;101581.53;4501212;31;20512;-72
2022/01/23 08:48:33;;;;;;;8.07;3.83;;;;;;;-0.20;59.59;101581.47;4501212;31;20170;-72
2022/01/23 08:51:00;;;;;;;5.97;2.78;;;;;;;-0.28;60.15;101572.44;4500842;31;20114;-72
2022/01/23 08:53:27;;;;;;;4.93;2.55;;;;;;;0.08;58.11;101573.38;4501315;31;20474;-71
2022/01/23 08:55:54;;;;;;;7.37;2.15;;;;;;;0.07;58.46;101571.63;4501064;31;20108;-71
2022/01/23 08:58:22;;;;;;;3.17;1.98;;;;;;;0.06;57.95;101571.53;4501109;31;20543;-71
2022/01/23 09:00:49;;;;;;;5.37;2.00;;;;;;;0.06;58.44;101568.94;4501243;31;20114;-71
2022/01/23 09:03:16;;;;;;;9.40;2.08;;;;;;;0.14;58.76;101572.78;4501050;31;20511;-72
2022/01/23 09:05:43;;;;;;;3.87;2.22;;;;;;;0.20;58.23;101575.69;4500991;31;20479;-73
2022/01/23 09:08:11;;;;;;;5.15;1.83;;;;;;;0.16;57.94;101584.12;4501199;31;20231;-72
2022/01/23 09:10:51;;;;;;;5.47;2.97;;;;;;;0.20;57.68;101586.06;4500935;31;20391;-71
2022/01/23 09:13:32;;;;;;;6.03;2.33;;;;;;;0.10;58.00;101594.19;4501060;31;20087;-72
2022/01/23 09:16:00;;;;;;;5.93;3.47;;;;;;;0.15;58.04;101591.03;4500811;31;20088;-71
2022/01/23 09:18:28;;;;;;;7.12;2.17;;;;;;;0.13;58.73;101589.16;4501036;31;20189;-71
2022/01/23 09:20:55;;;;;;;7.82;2.97;;;;;;;0.02;58.06;101596.41;4500805;31;20088;-72
2022/01/23 09:23:22;;;;;;;4.05;2.17;;;;;;;0.13;59.21;101591.75;4500683;31;20163;-72
2022/01/23 09:25:50;;;;;;;8.18;2.80;;;;;;;0.13;58.60;101586.56;4500752;31;20470;-71
2022/01/23 09:28:19;;;;;;;7.35;2.45;;;;;;;0.06;58.67;101594.84;4500810;31;20134;-72
2022/01/23 09:30:51;;;;;;;11.30;2.85;;;;;;;-0.03;59.08;101584.94;4500582;31;20492;-72
2022/01/23 09:33:19;;;;;;;4.28;2.72;;;;;;;0.03;59.33;101598.16;4500810;31;20451;-72
2022/01/23 09:35:46;;;;;;;7.40;2.40;;;;;;;0.18;58.86;101596.34;4500516;31;20092;-72
2022/01/23 09:38:13;;;;;;;12.75;3.08;;;;;;;0.24;59.41;101599.22;4500540;31;20116;-72
2022/01/23 09:40:42;;;;;;;9.40;2.53;;;;;;;0.43;58.64;101600.16;4500467;31;20142;-72
2022/01/23 09:43:16;;;;;;;4.68;2.70;;;;;;;0.57;58.15;101599.13;4500571;31;20346;-72
2022/01/23 09:45:46;;;;;;;9.32;2.80;;;;;;;0.58;58.79;101600.00;4500531;31;20163;-72
2022/01/23 09:48:16;;;;;;;4.37;1.80;;;;;;;0.60;57.80;101603.53;4500486;31;20797;-72
2022/01/23 09:50:47;;;;;;;7.60;2.33;;;;;;;0.72;56.94;101593.75;4500571;31;20083;-72
2022/01/23 09:53:15;;;;;;;5.32;3.05;;;;;;;0.68;57.01;101594.44;4500396;31;20110;-72
2022/01/23 09:55:46;;;;;;;3.70;2.05;;;;;;;0.40;59.00;101593.09;4500384;31;20514;-72
2022/01/23 09:58:16;;;;;;;5.62;2.37;;;;;;;0.67;57.21;101590.97;4500446;31;20091;-72
2022/01/23 10:00:44;;;;;;;6.45;3.22;;;;;;;0.71;58.02;101592.00;4485597;31;20087;-72
2022/01/23 10:03:12;;;;;;;6.70;3.42;;;;;;;0.84;57.62;101590.84;4501912;31;20100;-72
2022/01/23 10:05:39;;;;;;;8.98;2.90;;;;;;;1.00;57.54;101598.53;4502524;31;20116;-72
2022/01/23 10:08:07;;;;;;;7.18;2.75;;;;;;;1.11;56.13;101594.72;4502669;31;20150;-72
2022/01/23 10:10:39;;;;;;;7.95;2.78;;;;;;;1.19;56.86;101593.34;4502564;31;20106;-72
2022/01/23 10:13:08;;;;;;;5.05;2.92;;;;;;;1.49;55.82;101590.38;4502630;31;20471;-72
2022/01/23 10:15:35;;;;;;;5.12;2.55;;;;;;;1.67;54.62;101587.69;4502336;31;20159;-72
2022/01/23 10:18:02;;;;;;;8.98;2.90;;;;;;;1.76;54.39;101588.06;4502651;31;20463;-72
2022/01/23 10:20:30;;;;;;;5.32;2.58;;;;;;;1.55;54.41;101588.03;4502458;31;20114;-72
2022/01/23 10:22:59;;;;;;;7.68;3.05;;;;;;;1.62;54.75;101584.88;4502442;31;20485;-72
2022/01/23 10:25:29;;;;;;;5.72;2.62;;;;;;;1.45;55.29;101593.66;4502356;31;20095;-72
2022/01/23 10:28:07;;;;;;;7.53;3.35;;;;;;;1.57;55.84;101582.91;4502423;31;20095;-72
2022/01/23 10:30:39;;;;;;;11.68;3.83;;;;;;;1.77;54.77;101595.06;4502241;31;20476;-72
2022/01/23 10:33:11;;;;;;;7.10;3.10;;;;;;;1.72;54.49;101588.75;4502516;31;20440;-72
2022/01/23 10:36:08;;;;;;;9.80;3.12;;;;;;;1.79;55.94;101590.81;4502341;31;20115;-72
2022/01/23 10:38:50;;;;;;;6.20;2.90;;;;;;;2.12;53.75;101585.25;4502286;31;20129;-72
2022/01/23 10:50:01;;;;;;;10.05;3.20;;;;;;;1.94;54.59;101580.16;4488533;31;20096;-72
2022/01/23 10:52:32;;;;;;;6.55;3.12;;;;;;;1.72;55.96;101580.97;4502219;31;20110;-72
2022/01/23 10:55:10;;;;;;;6.53;3.30;;;;;;;1.81;55.80;101580.50;4502237;31;20123;-72
2022/01/23 10:57:43;;;;;;;6.53;3.15;;;;;;;2.20;55.15;101589.06;4502039;31;20497;-72
2022/01/23 11:00:25;;;;;;;5.78;2.50;;;;;;;1.85;55.16;101585.87;4502254;31;20560;-72
2022/01/23 11:02:53;;;;;;;9.82;4.35;;;;;;;2.04;54.52;101582.31;4502217;31;20135;-72
2022/01/23 11:05:34;;;;;;;10.88;3.75;;;;;;;2.26;54.00;101575.41;4502084;31;20458;-72
2022/01/23 11:08:17;;;;;;;6.87;3.28;;;;;;;2.28;54.94;101574.66;4502086;31;20129;-72
2022/01/23 11:10:56;;;;;;;6.97;3.78;;;;;;;2.47;53.14;101571.06;4502247;31;20092;-72
2022/01/23 11:19:28;;;;;;;8.63;4.55;;;;;;;2.19;54.51;101575.97;4501949;31;20396;-72
2022/01/23 11:21:59;;;;;;;6.85;3.10;;;;;;;2.55;53.58;101574.00;4502049;31;20142;-72
2022/01/23 11:24:41;;;;;;;7.12;3.45;;;;;;;2.48;53.61;101585.00;4501910;31;20091;-72
2022/01/23 11:27:09;;;;;;;6.78;3.15;;;;;;;2.74;52.58;101576.50;4501956;31;20084;-72
2022/01/23 11:29:37;;;;;;;4.85;3.17;;;;;;;2.59;51.89;101583.69;4501755;31;20161;-72
2022/01/23 11:32:06;;;;;;;7.65;3.15;;;;;;;2.57;52.43;101577.53;4501928;31;20477;-72
2022/01/23 11:34:34;;;;;;;10.35;5.18;;;;;;;2.44;52.58;101584.00;4501806;31;20476;-72
2022/01/23 11:37:02;;;;;;;6.65;3.12;;;;;;;2.21;53.04;101575.22;4486996;31;20465;-72
2022/01/23 11:39:46;;;;;;;9.50;3.37;;;;;;;2.25;53.05;101566.72;4501764;31;20163;-72
2022/01/23 11:56:32;;;;;;;;;;;;;;;1.73;54.76;101561.94;4436118;32;20556;-74
2022/01/23 11:59:09;;;;;;;6.18;2.97;;;;;;;1.58;55.61;101564.78;4436200;32;19997;-74
2022/01/23 12:01:39;;;;;;;8.50;4.10;;;;;;;1.65;56.14;101564.22;4472907;31;20441;-74
2022/01/23 12:04:11;;;;;;;8.88;3.58;;;;;;;1.77;56.28;101558.69;4501887;31;20100;-74
2022/01/23 12:06:42;;;;;;;7.47;3.22;;;;;;;1.90;56.05;101557.47;4501753;31;20113;-74
2022/01/23 12:09:09;;;;;;;7.93;3.42;;;;;;;2.04;54.76;101547.66;4501986;31;20502;-74
2022/01/23 12:11:46;;;;;;;7.47;3.75;;;;;;;1.76;56.24;101551.69;4486888;31;20100;-74
2022/01/23 12:17:04;;;;;;;9.00;3.62;;;;;;;1.98;55.39;101544.78;4501580;31;20080;-74
2022/01/23 12:19:44;;;;;;;9.73;3.70;;;;;;;1.88;55.73;101541.81;4501540;31;20147;-74
2022/01/23 12:22:30;;;;;;;8.57;4.10;;;;;;;1.77;56.55;101540.50;4501711;31;20076;-74
2022/01/23 12:25:11;;;;;;;8.07;3.63;;;;;;;1.90;56.22;101540.16;4500947;31;20172;-74
2022/01/23 12:27:38;;;;;;;10.30;4.10;;;;;;;1.98;55.91;101537.91;4501594;31;20110;-74
2022/01/23 12:30:14;;;;;;;7.95;3.85;;;;;;;2.07;55.60;101542.59;4501333;31;20187;-74
2022/01/23 12:32:46;;;;;;;8.55;3.97;;;;;;;2.10;55.75;101529.72;4501567;31;20091;-74
2022/01/23 12:35:15;;;;;;;13.38;4.72;;;;;;;2.07;55.59;101537.38;4501268;31;20440;-74
2022/01/23 12:38:02;;;;;;;15.63;4.25;;;;;;;2.13;55.96;101533.31;4501255;31;20087;-74
2022/01/23 12:40:37;;;;;;;6.55;3.37;;;;;;;2.24;55.24;101536.34;4501468;31;20107;-74
2022/01/23 12:43:08;;;;;;;12.52;4.60;;;;;;;2.29;54.91;101533.94;4501478;31;20092;-74
2022/01/23 12:45:49;;;;;;;11.25;4.60;;;;;;;2.57;54.74;101535.91;4501294;31;20454;-74
2022/01/23 12:48:25;;;;;;;10.75;4.40;;;;;;;2.58;55.06;101537.66;4501264;31;20113;-73
2022/01/23 12:51:14;;;;;;;10.52;4.12;;;;;;;2.73;54.66;101527.88;4501380;31;20155;-72
2022/01/23 12:53:47;;;;;;;14.02;5.15;;;;;;;2.83;53.26;101519.59;4490497;31;20111;-72
2022/01/23 12:56:41;;;;;;;9.75;4.40;;;;;;;3.22;52.84;101529.72;4501340;31;20096;-72
2022/01/23 12:59:11;;;;;;;17.67;5.07;;;;;;;3.17;53.15;101531.25;4501178;31;20440;-72
2022/01/23 13:01:46;;;;;;;12.68;5.37;;;;;;;2.99;51.71;101530.56;4501152;31;20103;-72
2022/01/23 13:04:16;;;;;;;13.85;5.20;;;;;;;3.12;51.79;101527.59;4501174;31;20096;-72
2022/01/23 13:06:55;;;;;;;12.55;5.57;;;;;;;3.08;51.47;101518.78;4501148;31;20096;-72
2022/01/23 13:09:30;;;;;;;11.63;5.12;;;;;;;3.43;50.10;101523.47;4501017;31;20102;-72
2022/01/23 13:12:13;;;;;;;12.90;5.28;;;;;;;3.39;48.89;101537.22;4501235;31;20092;-71
2022/01/23 13:32:03;;;;;;;8.30;4.20;;;;;;;12.06;31.59;101524.22;4500689;31;20076;-72
2022/01/23 13:34:40;;;;;;;9.85;4.00;;;;;;;11.35;30.95;101513.50;4500765;31;20080;-72
2022/01/23 13:37:22;;;;;;;5.90;4.05;;;;;;;12.47;31.42;101516.25;4501295;31;20095;-72
2022/01/23 13:40:04;;;;;;;7.07;3.90;;;;;;;12.91;28.45;101512.63;4502888;31;20130;-72
2022/01/23 13:47:52;;;;;;;7.45;3.97;;;;;;;12.41;28.94;101519.81;4502995;31;20434;-73
2022/01/23 13:57:32;;;;;;;6.43;4.35;;;;;;;14.49;27.34;101527.53;4502274;31;20106;-73
2022/01/23 13:58:10;;;;;;;8.00;4.35;;;;;;;13.59;28.31;101529.09;4502602;31;20595;-72
2022/01/23 14:00:11;;;;;;;8.88;4.65;;;;;;;13.66;28.47;101528.19;4489184;31;20140;-72
2022/01/23 14:02:47;;;;;;;6.32;4.32;;;;;;;15.06;26.80;101535.78;4502504;31;20112;-73
2022/01/23 14:05:17;;;;;;;9.38;4.75;;;;;;;14.97;24.79;101525.25;4502618;31;20144;-72
2022/01/23 14:07:48;;;;;;;13.15;5.00;;;;;;;14.51;26.25;101523.97;4502690;31;20737;-72
2022/01/23 14:10:18;;;;;;;9.68;5.00;;;;;;;14.94;26.68;101514.66;4502810;31;20118;-73
2022/01/23 14:12:51;;;;;;;6.90;4.43;;;;;;;14.80;26.01;101518.34;4502553;31;20490;-73
2022/01/23 14:15:25;;;;;;;11.75;5.47;;;;;;;15.27;26.09;101516.91;4502435;31;20537;-73
2022/01/23 14:18:13;;;;;;;10.63;5.15;;;;;;;15.03;26.42;101509.28;4502495;31;20115;-73
2022/01/23 14:20:44;;;;;;;5.97;4.07;;;;;;;15.42;27.37;101514.97;4502722;31;20084;-73
2022/01/23 14:23:15;;;;;;;9.63;4.60;;;;;;;14.78;26.17;101512.22;4502665;31;20153;-72
2022/01/23 14:25:49;;;;;;;12.82;5.50;;;;;;;14.00;27.30;101512.06;4502389;31;20125;-72
2022/01/23 14:28:35;;;;;;;12.05;5.93;;;;;;;13.56;27.77;101513.22;4502475;31;20095;-72
2022/01/23 14:31:11;;;;;;;18.40;10.25;;;;;;;12.72;27.55;101521.50;4502106;31;20436;-72
2022/01/23 14:33:39;;;;;;;12.85;6.55;;;;;;;11.40;30.68;101524.06;4502299;31;20508;-72
2022/01/23 14:36:31;;;;;;;10.93;5.60;;;;;;;10.72;31.76;101526.41;4502261;31;20095;-72
2022/01/23 14:39:11;;;;;;;10.30;5.32;;;;;;;10.10;32.92;101536.47;4502310;31;20151;-72
2022/01/23 14:41:44;;;;;;;11.45;4.70;;;;;;;9.13;34.27;101539.84;4502449;31;20408;-72
2022/01/23 14:44:23;;;;;;;7.43;4.28;;;;;;;8.81;33.85;101545.56;4502242;31;20497;-72
2022/01/23 14:46:53;;;;;;;12.95;3.95;;;;;;;7.33;36.69;101557.00;4502234;31;20072;-72
2022/01/23 14:49:25;;;;;;;8.15;4.85;;;;;;;6.47;39.42;101563.88;4501837;31;20155;-74
2022/01/23 14:51:54;;;;;;;5.30;3.47;;;;;;;5.89;39.80;101565.00;4502164;31;20092;-75
2022/01/23 14:54:24;;;;;;;10.30;3.20;;;;;;;5.75;40.80;101563.75;4502146;31;20187;-74
2022/01/23 14:56:52;;;;;;;6.70;3.97;;;;;;;5.30;42.06;101571.19;4501877;31;20131;-74
2022/01/23 14:59:19;;;;;;;8.02;4.37;;;;;;;5.04;42.36;101580.03;4502045;31;20095;-74
2022/01/23 15:01:47;;;;;;;9.50;4.05;;;;;;;4.71;42.91;101574.69;4502095;31;20801;-74
2022/01/23 15:04:15;;;;;;;10.55;3.55;;;;;;;3.91;45.16;101575.53;4501797;31;20167;-74
2022/01/23 15:06:46;;;;;;;8.65;4.07;;;;;;;3.31;46.83;101576.03;4502478;31;20080;-74
2022/01/23 15:09:17;;;;;;;6.37;3.58;;;;;;;3.24;46.82;101580.13;4487437;31;20159;-74
2022/01/23 15:11:45;;;;;;;8.07;3.75;;;;;;;2.96;48.06;101580.78;4502077;31;20142;-74
2022/01/23 15:14:12;;;;;;;11.07;5.12;;;;;;;2.71;48.83;101585.91;4502107;31;20122;-72
2022/01/23 15:16:41;;;;;;;10.85;4.43;;;;;;;2.50;49.44;101581.59;4501857;31;20786;-71
2022/01/23 15:19:09;;;;;;;9.23;3.85;;;;;;;2.13;50.70;101589.63;4501867;31;20367;-72
2022/01/23 15:21:36;;;;;;;15.40;4.60;;;;;;;2.12;51.24;101593.03;4501882;31;20096;-71
2022/01/23 15:24:04;;;;;;;10.00;3.97;;;;;;;1.64;52.69;101593.63;4501967;31;20119;-71
2022/01/23 15:26:34;;;;;;;10.93;4.53;;;;;;;1.56;53.02;101589.81;4502066;31;20080;-72
2022/01/23 15:29:03;;;;;;;11.88;4.60;;;;;;;1.51;53.23;101593.91;4501897;31;20080;-71
2022/01/23 15:31:31;;;;;;;9.90;4.10;;;;;;;1.19;54.76;101606.34;4501906;31;20178;-72
2022/01/23 15:33:59;;;;;;;12.05;4.25;;;;;;;0.87;55.71;101602.25;4501925;31;20448;-72